Terminal Aerodrome Forecast
Issued by NWS Pocatello, ID

Home | Current Version | Previous Version | Text Only | Print | Product List | Glossary On
Versions: 1 2 3 4 5 6 7 8 9 10 11 12 13 14 15 16 17 18
043
FTUS45 KPIH 242009 AAA
TAFBYI
TAF AMD
KBYI 242009Z 2420/2518 20014G24KT 6SM -SHSN SCT020 OVC040
     FM242100 23020G28KT 1SM -SN BLSN SCT010 OVC020
     FM250300 26017KT 6SM BLSN OVC035
     FM251600 25019G29KT 6SM BLSN SCT035 BKN090=

USA.gov is the U.S. government's official web portal to all federal, state and local government web resources and services.